ADDS METAR Data INFO
IDs: Format: Raw Decoded Include TAF

Data at: 0145 UTC 18 Oct 2017

KJAS 180135Z AUTO 00000KT 10SM CLR 14/12 A3020 RMK AO2 T01410116
KJAS 180115Z AUTO 00000KT 10SM CLR 15/12 A3020 RMK AO2 T01460118
KJAS 180055Z AUTO 00000KT 10SM CLR 15/11 A3019 RMK AO2 T01530114
KJAS 180035Z AUTO 00000KT 10SM CLR 16/12 A3019 RMK AO2 T01630115
KJAS 180015Z AUTO 00000KT 10SM CLR 18/12 A3018 RMK AO2 T01780117
KJAS 172355Z AUTO 00000KT 10SM CLR 20/11 A3018 RMK AO2 T01950108
KJAS 172335Z AUTO 02003KT 10SM CLR 22/09 A3017 RMK AO2 T02180092
KJAS 172315Z AUTO 02004KT 10SM CLR 23/09 A3017 RMK AO2 T02280085
KJAS 172255Z AUTO 01004KT 10SM CLR 24/08 A3016 RMK AO2 T02350083
KJAS 172235Z AUTO 04005KT 10SM CLR 24/08 A3016 RMK AO2 T02390077
KJAS 172215Z AUTO 01005KT 10SM CLR 24/08 A3016 RMK AO2 T02440081
KJAS 172155Z AUTO 35006KT 10SM CLR 25/08 A3017 RMK AO2 T02470075
KJAS 172135Z AUTO 01006KT 10SM CLR 25/07 A3017 RMK AO2 T02490069
KJAS 172115Z AUTO 36003KT 10SM CLR 25/07 A3018 RMK AO2 T02520071
KJAS 172055Z AUTO 00000KT 10SM CLR 25/07 A3018 RMK AO2 T02490071
KJAS 172035Z AUTO 03004KT 10SM CLR 25/07 A3018 RMK AO2 T02480069
KJAS 172015Z AUTO 01009KT 10SM CLR 25/07 A3019 RMK AO2 T02470066
KJAS 171955Z AUTO 02003KT 10SM CLR 24/06 A3020 RMK AO2 T02440060
KJAS 171935Z AUTO 03008KT 10SM CLR 24/06 A3021 RMK AO2 T02420062
KJAS 171915Z AUTO 02005KT 10SM CLR 24/07 A3022 RMK AO2 T02400067
KJAS 171855Z AUTO 01006KT 10SM CLR 24/06 A3023 RMK AO2 T02360059
KJAS 171835Z AUTO 01003KT 10SM CLR 23/06 A3024 RMK AO2 T02330060
KJAS 171815Z AUTO 34005KT 10SM CLR 23/07 A3025 RMK AO2 T02290066
KJAS 171755Z AUTO 02006KT 10SM CLR 22/07 A3026 RMK AO2 T02220073
KJAS 171735Z AUTO 04003KT 10SM CLR 22/07 A3027 RMK AO2 T02170067
KJAS 171715Z AUTO 02005KT 10SM CLR 21/07 A3028 RMK AO2 T02120072
KJAS 171655Z AUTO 34006KT 10SM CLR 20/08 A3028 RMK AO2 T02040077
KJAS 171635Z AUTO 00000KT 10SM CLR 20/08 A3029 RMK AO2 T01970077
KJAS 171615Z AUTO 10005KT 10SM CLR 19/08 A3030 RMK AO2 T01920079
KJAS 171555Z AUTO 05006KT 10SM CLR 19/08 A3031 RMK AO2 T01860080
KJAS 171535Z AUTO 05003KT 10SM CLR 18/08 A3032 RMK AO2 T01800083
KJAS 171515Z AUTO 06003KT 10SM CLR 17/09 A3031 RMK AO2 T01730085
KJAS 171455Z AUTO 04005KT 10SM CLR 17/09 A3031 RMK AO2 T01650089
KJAS 171435Z AUTO 06004KT 10SM CLR 15/09 A3031 RMK AO2 T01540091
KJAS 171415Z AUTO 05003KT 10SM CLR 14/09 A3030 RMK AO2 T01420089
KJAS 171355Z AUTO 05005KT 10SM CLR 12/09 A3030 RMK AO2 T01230093
KJAS 171335Z AUTO 00000KT 10SM CLR 10/09 A3030 RMK AO2 T00950090
KJAS 171315Z AUTO 00000KT 10SM CLR 08/08 A3030 RMK AO2 T00810079
KJAS 171255Z AUTO 00000KT 10SM SCT002 07/07 A3029 RMK AO2 T00700068
KJAS 171235Z AUTO 00000KT 10SM OVC002 07/06 A3029 RMK AO2 T00650062
KJAS 171215Z AUTO 00000KT 7SM SCT002 06/06 A3029 RMK AO2 T00610057
KJAS 171155Z AUTO 00000KT 10SM CLR 07/07 A3029 RMK AO2 T00700065
KJAS 171135Z AUTO 00000KT 10SM CLR 08/07 A3028 RMK AO2 T00760072
KJAS 171115Z AUTO 00000KT 10SM CLR 08/07 A3028 RMK AO2 T00780073
KJAS 171055Z AUTO 00000KT 3SM BR CLR 08/07 A3027 RMK AO2 T00770072
KJAS 171035Z AUTO 00000KT 10SM CLR 07/07 A3027 RMK AO2 T00720066
KJAS 171015Z AUTO 00000KT 10SM CLR 07/07 A3026 RMK AO2 T00740068
KJAS 170955Z AUTO 00000KT 10SM CLR 08/07 A3026 RMK AO2 T00780072
KJAS 170935Z AUTO 00000KT 10SM CLR 08/08 A3026 RMK AO2 T00840077
KJAS 170915Z AUTO 00000KT 10SM CLR 08/07 A3026 RMK AO2 T00790072
KJAS 170855Z AUTO 00000KT 10SM CLR 08/07 A3026 RMK AO2 T00810073
KJAS 170835Z AUTO 00000KT 10SM CLR 08/08 A3026 RMK AO2 T00830075
KJAS 170815Z AUTO 00000KT 10SM CLR 09/08 A3026 RMK AO2 T00870077
KJAS 170755Z AUTO 00000KT 10SM CLR 10/09 A3026 RMK AO2 T00960086
KJAS 170735Z AUTO 00000KT 10SM CLR 10/09 A3026 RMK AO2 T01020088
KJAS 170715Z AUTO 00000KT 10SM CLR 10/09 A3027 RMK AO2 T01030088
KJAS 170655Z AUTO 00000KT 10SM CLR 10/09 A3027 RMK AO2 T01000087
KJAS 170635Z AUTO 00000KT 10SM CLR 10/09 A3027 RMK AO2 T01000086
KJAS 170615Z AUTO 00000KT 10SM CLR 11/09 A3027 RMK AO2 T01050089
KJAS 170555Z AUTO 00000KT 10SM CLR 11/09 A3027 RMK AO2 T01110087
KJAS 170535Z AUTO 00000KT 10SM CLR 12/09 A3027 RMK AO2 T01210092
KJAS 170515Z AUTO 00000KT 10SM CLR 12/08 A3027 RMK AO2 T01200082
KJAS 170455Z AUTO 01003KT 10SM CLR 12/08 A3028 RMK AO2 T01230083
KJAS 170435Z AUTO 01003KT 10SM CLR 13/08 A3028 RMK AO2 T01280083
KJAS 170415Z AUTO 01003KT 10SM CLR 14/08 A3028 RMK AO2 T01430082
KJAS 170355Z AUTO 00000KT 10SM CLR 15/08 A3028 RMK AO2 T01530080
KJAS 170335Z AUTO 03003KT 10SM CLR 16/08 A3027 RMK AO2 T01580078
KJAS 170315Z AUTO 02003KT 10SM CLR 16/08 A3027 RMK AO2 T01610077
KJAS 170255Z AUTO 02004KT 10SM CLR 16/08 A3027 RMK AO2 T01620080
KJAS 170235Z AUTO 02004KT 10SM CLR 16/08 A3027 RMK AO2 T01610084
KJAS 170215Z AUTO 02003KT 10SM CLR 16/09 A3028 RMK AO2 T01620089
KJAS 170155Z AUTO 03003KT 10SM CLR 17/09 A3027 RMK AO2 T01650086
KJAS 170135Z AUTO 01003KT 10SM CLR 16/09 A3027 RMK AO2 T01590093
KJAS 170115Z AUTO 36005KT 10SM CLR 16/10 A3026 RMK AO2 T01570098
KJAS 170055Z AUTO 36003KT 10SM CLR 16/10 A3026 RMK AO2 T01620100
KJAS 170035Z AUTO 35004KT 10SM CLR 17/10 A3025 RMK AO2 T01730098
KJAS 170015Z AUTO 00000KT 10SM CLR 19/10 A3024 RMK AO2 T01860095
KJAS 162355Z AUTO 00000KT 10SM CLR 20/09 A3024 RMK AO2 T01950094
KJAS 162335Z AUTO 36004KT 10SM CLR 21/09 A3023 RMK AO2 T02080089
KJAS 162315Z AUTO 36006KT 10SM CLR 22/09 A3022 RMK AO2 T02160086
KJAS 162255Z AUTO 35007KT 10SM CLR 22/08 A3022 RMK AO2 T02240081
KJAS 162235Z AUTO 01007G15KT 10SM CLR 23/08 A3021 RMK AO2 T02300075
KJAS 162215Z AUTO 01007KT 10SM CLR 23/07 A3021 RMK AO2 T02320073
KJAS 162200Z AUTO 03009KT 10SM CLR 23/07 A3021 RMK AO2 T02340073
KJAS 162135Z AUTO 02011G15KT 10SM CLR 24/08 A3020 RMK AO2 T02380077
KJAS 162115Z AUTO 35011G16KT 10SM CLR 24/08 A3020 RMK AO2 T02400080
KJAS 162055Z AUTO 34010G15KT 10SM CLR 24/08 A3020 RMK AO2 T02400079
KJAS 162035Z AUTO 36011G18KT 10SM CLR 24/08 A3020 RMK AO2 T02410075
KJAS 162015Z AUTO 03007G14KT 10SM CLR 24/08 A3021 RMK AO2 T02400075
KJAS 161955Z AUTO 36008G15KT 10SM CLR 24/07 A3022 RMK AO2 T02380073
KJAS 161935Z AUTO 03006G15KT 350V060 10SM CLR 24/07 A3022 RMK AO2 T02360074
KJAS 161915Z AUTO 02008G16KT 10SM CLR 24/08 A3023 RMK AO2 T02350076
KJAS 161855Z AUTO 36010G17KT 10SM CLR 23/07 A3024 RMK AO2 T02320072
KJAS 161835Z AUTO 36009KT 10SM CLR 23/07 A3025 RMK AO2 T02270072
KJAS 161815Z AUTO 36011G16KT 10SM CLR 23/08 A3027 RMK AO2 T02250077
KJAS 161750Z AUTO 04007KT 10SM CLR 22/08 A3028 RMK AO2 T02170075
KJAS 161735Z AUTO 02008G15KT 10SM CLR 22/08 A3029 RMK AO2 T02150082
KJAS 161720Z AUTO 01008G14KT 10SM CLR 21/08 A3030 RMK AO2 T02110084
KJAS 161655Z AUTO 36009KT 10SM CLR 21/09 A3031 RMK AO2 T02060085
KJAS 161635Z AUTO 01011G14KT 10SM CLR 20/09 A3032 RMK AO2 T02000086
KJAS 161615Z AUTO 02011G20KT 10SM CLR 20/09 A3033 RMK AO2 T01960086
KJAS 161555Z AUTO 01011G17KT 10SM CLR 19/09 A3033 RMK AO2 T01920089
KJAS 161530Z AUTO 02009G16KT 10SM CLR 19/09 A3033 RMK AO2 T01860090
KJAS 161515Z AUTO 05011G17KT 10SM CLR 18/09 A3034 RMK AO2 T01820090
KJAS 161455Z AUTO 05011G21KT 020V080 10SM CLR 18/09 A3034 RMK AO2 T01770090
KJAS 161435Z AUTO 03013G20KT 360V060 10SM CLR 17/09 A3033 RMK AO2 T01730093
KJAS 161415Z AUTO 04007G18KT 010V070 10SM CLR 17/10 A3033 RMK AO2 T01690098
KJAS 161355Z AUTO 03007G16KT 10SM CLR 16/10 A3032 RMK AO2 T01630101